createdAt,value
2019-04-27T00:00:01.259Z,2.24
2019-04-27T00:05:01.067Z,1.99
2019-04-27T00:10:03.504Z,1.95
2019-04-27T00:15:03.188Z,2.31
2019-04-27T00:20:01.272Z,1.56
2019-04-27T00:25:01.095Z,1.54
2019-04-27T00:30:01.286Z,0.88
2019-04-27T00:35:01.146Z,1.14
2019-04-27T00:40:01.098Z,1.34
2019-04-27T00:45:03.031Z,0.86
2019-04-27T00:50:03.450Z,0.90
2019-04-27T00:55:03.025Z,0.51
2019-04-27T01:00:01.135Z,1.08
2019-04-27T01:05:01.432Z,0.24
2019-04-27T01:10:02.967Z,0.19
2019-04-27T01:15:01.130Z,0.06
2019-04-27T01:20:01.145Z,0.51
2019-04-27T01:25:01.138Z,0.53
2019-04-27T01:30:01.369Z,0.85
2019-04-27T01:35:01.065Z,1.04
2019-04-27T01:40:01.439Z,1.34
2019-04-27T01:45:01.072Z,0.13
2019-04-27T01:50:01.104Z,0.22
2019-04-27T01:55:01.099Z,0.66
2019-04-27T02:00:01.149Z,0.65
2019-04-27T02:05:01.841Z,0.54
2019-04-27T02:10:01.489Z,0.63
2019-04-27T02:15:01.111Z,0.93
2019-04-27T02:20:01.204Z,0.67
2019-04-27T02:25:01.133Z,0.71
2019-04-27T02:30:01.524Z,1.13
2019-04-27T02:35:01.162Z,1.85
2019-04-27T02:40:01.523Z,2.76
2019-04-27T02:45:01.111Z,2.09
2019-04-27T02:50:01.101Z,1.25
2019-04-27T02:55:01.092Z,0.37
2019-04-27T03:00:01.136Z,0.67
2019-04-27T03:05:01.146Z,0.92
2019-04-27T03:10:02.329Z,0.98
2019-04-27T03:15:01.105Z,0.99
2019-04-27T03:20:01.165Z,0.71
2019-04-27T04:05:01.056Z,0.17
2019-04-27T04:10:01.066Z,0.98
2019-04-27T04:15:01.432Z,0.41
2019-04-27T04:20:01.655Z,0.35
2019-04-27T04:25:01.077Z,0.00
2019-04-27T04:30:01.461Z,0.34
2019-04-27T04:35:01.469Z,0.79
2019-04-27T04:40:01.057Z,0.59
2019-04-27T04:45:01.115Z,0.70
2019-04-27T04:50:10.708Z,0.64
2019-04-27T04:55:02.527Z,0.73
2019-04-27T05:00:01.480Z,0.08
2019-04-27T05:05:01.118Z,0.00
2019-04-27T05:10:01.394Z,0.00
2019-04-27T05:15:01.150Z,0.18
2019-04-27T05:20:01.084Z,0.00
2019-04-27T05:25:01.360Z,0.00
2019-04-27T05:30:01.476Z,0.00
2019-04-27T05:35:01.146Z,0.10
2019-04-27T05:40:01.124Z,0.00
2019-04-27T05:45:01.071Z,0.00
2019-04-27T05:50:01.100Z,0.00
2019-04-27T05:55:01.099Z,0.00
2019-04-27T06:00:02.419Z,0.00
2019-04-27T06:05:01.118Z,0.38
2019-04-27T06:10:01.089Z,0.00
2019-04-27T06:15:01.547Z,0.46
2019-04-27T06:20:01.083Z,0.35
2019-04-27T06:25:01.139Z,0.78
2019-04-27T06:30:01.074Z,0.63
2019-04-27T06:35:01.076Z,0.85
2019-04-27T06:40:01.072Z,1.02
2019-04-27T06:45:01.068Z,1.42
2019-04-27T06:50:01.081Z,1.64
2019-04-27T06:55:01.083Z,1.25
2019-04-27T07:00:01.086Z,1.60
2019-04-27T07:05:01.441Z,1.13
2019-04-27T07:10:08.605Z,1.57
2019-04-27T07:15:01.158Z,0.61
2019-04-27T07:20:01.136Z,0.68
2019-04-27T07:25:01.191Z,1.56
2019-04-27T07:30:01.753Z,1.82
2019-04-27T07:35:01.117Z,1.45
2019-04-27T07:40:01.439Z,0.75
2019-04-27T07:45:01.472Z,0.68
2019-04-27T07:50:01.356Z,1.47
2019-04-27T07:55:01.096Z,1.39
2019-04-27T08:00:01.077Z,1.37
2019-04-27T08:05:01.277Z,0.77
2019-04-27T08:10:01.685Z,1.42
2019-04-27T08:25:01.112Z,1.30
2019-04-27T08:30:01.144Z,2.07
2019-04-27T08:35:01.087Z,0.98
2019-04-27T08:40:01.078Z,1.60
2019-04-27T08:45:01.529Z,0.77
2019-04-27T08:50:01.193Z,0.99
2019-04-27T08:55:01.101Z,1.17
2019-04-27T09:00:01.134Z,1.46
2019-04-27T09:05:01.183Z,2.07
2019-04-27T09:10:01.110Z,1.43
2019-04-27T09:15:01.138Z,1.58
2019-04-27T09:20:01.110Z,1.00
2019-04-27T09:25:01.105Z,1.14
2019-04-27T09:30:01.269Z,1.15
2019-04-27T09:35:01.102Z,1.97
2019-04-27T09:40:01.563Z,1.05
2019-04-27T09:45:01.082Z,0.94
2019-04-27T09:50:01.128Z,2.16
2019-04-27T09:55:01.094Z,3.01
2019-04-27T10:00:01.505Z,1.81
2019-04-27T10:05:01.097Z,1.38
2019-04-27T10:10:01.101Z,2.42
2019-04-27T10:15:01.102Z,1.49
2019-04-27T10:20:01.903Z,1.67
2019-04-27T10:25:01.085Z,2.18
2019-04-27T10:30:01.088Z,2.09
2019-04-27T10:35:01.068Z,1.29
2019-04-27T10:40:01.882Z,1.54
2019-04-27T10:45:01.774Z,1.77
2019-04-27T10:50:01.688Z,1.60
2019-04-27T10:55:01.107Z,1.34
2019-04-27T11:00:01.146Z,1.41
2019-04-27T11:05:01.118Z,1.50
2019-04-27T11:10:01.137Z,1.94
2019-04-27T11:15:01.130Z,2.82
2019-04-27T11:20:02.784Z,2.67
2019-04-27T11:25:01.204Z,2.14
2019-04-27T11:30:01.571Z,2.12
2019-04-27T11:35:01.629Z,2.41
2019-04-27T11:40:01.345Z,2.25
2019-04-27T11:45:01.810Z,3.67
2019-04-27T11:50:02.278Z,1.33
2019-04-27T11:55:01.109Z,3.47
2019-04-27T12:00:04.729Z,1.45
2019-04-27T12:05:02.033Z,2.10
2019-04-27T12:10:05.725Z,3.05
2019-04-27T12:15:02.112Z,3.25
2019-04-27T12:20:01.125Z,2.55
2019-04-27T12:25:01.625Z,2.10
2019-04-27T12:30:02.097Z,2.27
2019-04-27T12:35:02.081Z,0.89
2019-04-27T12:40:01.632Z,1.29
2019-04-27T12:45:02.013Z,0.75
2019-04-27T12:50:01.630Z,1.19
2019-04-27T12:55:01.704Z,0.85
2019-04-27T13:00:02.109Z,0.93
2019-04-27T13:05:01.684Z,0.91
2019-04-27T13:10:01.653Z,0.55
2019-04-27T13:15:01.998Z,0.56
2019-04-27T13:20:01.683Z,0.64
2019-04-27T13:25:01.107Z,0.41
2019-04-27T13:30:01.119Z,0.29
2019-04-27T13:35:01.101Z,0.92
2019-04-27T13:40:07.057Z,0.26
2019-04-27T13:45:01.084Z,0.61
2019-04-27T13:50:01.086Z,4.33
2019-04-27T13:55:01.105Z,2.23
2019-04-27T14:00:01.390Z,1.41
2019-04-27T14:05:01.341Z,1.16
2019-04-27T14:10:01.069Z,0.98
2019-04-27T14:15:01.110Z,1.50
2019-04-27T14:20:01.106Z,1.26
2019-04-27T14:25:01.071Z,0.75
2019-04-27T14:30:01.082Z,0.83
2019-04-27T14:35:01.087Z,0.59
2019-04-27T14:40:01.101Z,0.52
2019-04-27T14:45:01.098Z,0.85
2019-04-27T14:50:01.098Z,0.39
2019-04-27T14:55:01.077Z,0.34
2019-04-27T15:00:01.115Z,0.79
2019-04-27T15:05:01.094Z,0.77
2019-04-27T15:10:01.074Z,0.87
2019-04-27T15:15:01.630Z,0.43
2019-04-27T15:20:01.495Z,0.87
2019-04-27T15:25:12.326Z,0.59
2019-04-27T15:30:06.080Z,1.87
2019-04-27T15:35:05.233Z,1.36
2019-04-27T15:40:08.190Z,0.79
2019-04-27T15:45:01.066Z,0.17
2019-04-27T15:50:01.148Z,1.07
2019-04-27T15:55:02.855Z,0.69
2019-04-27T16:00:01.110Z,0.67
2019-04-27T16:05:01.163Z,0.49
2019-04-27T16:10:02.715Z,0.69
2019-04-27T16:15:01.153Z,0.37
2019-04-27T16:20:01.454Z,0.14
2019-04-27T16:25:03.832Z,0.35
2019-04-27T16:30:09.669Z,0.86
2019-04-27T16:35:01.103Z,0.87
2019-04-27T16:40:01.369Z,0.04
2019-04-27T16:45:01.430Z,0.11
2019-04-27T16:50:01.127Z,0.02
2019-04-27T16:55:01.088Z,0.37
2019-04-27T17:00:01.320Z,2.07
2019-04-27T17:05:01.525Z,2.10
2019-04-27T17:10:01.099Z,1.12
2019-04-27T17:15:01.148Z,0.53
2019-04-27T17:20:01.119Z,0.01
2019-04-27T17:25:01.135Z,0.93
2019-04-27T17:30:01.781Z,0.66
2019-04-27T17:35:04.962Z,0.98
2019-04-27T17:40:01.102Z,1.09
2019-04-27T17:45:01.097Z,1.22
2019-04-27T17:50:01.093Z,1.10
2019-04-27T17:55:01.180Z,1.09
2019-04-27T18:00:03.320Z,1.32
2019-04-27T18:05:01.121Z,0.85
2019-04-27T18:10:01.600Z,0.63
2019-04-27T18:15:01.106Z,1.29
2019-04-27T18:20:01.367Z,0.63
2019-04-27T18:25:06.216Z,0.60
2019-04-27T18:30:03.319Z,1.12
2019-04-27T18:35:01.135Z,0.87
2019-04-27T18:40:01.083Z,0.92
2019-04-27T18:45:06.780Z,1.28
2019-04-27T18:50:10.866Z,1.43
2019-04-27T18:55:01.602Z,1.10
2019-04-27T19:00:01.684Z,0.86
2019-04-27T19:05:01.493Z,1.14
2019-04-27T19:10:01.600Z,0.92
2019-04-27T19:15:01.480Z,0.65
2019-04-27T19:20:01.103Z,0.84
2019-04-27T19:25:01.074Z,1.42
2019-04-27T19:30:01.099Z,1.03
2019-04-27T19:35:01.429Z,0.69
2019-04-27T19:40:01.427Z,1.23
2019-04-27T19:45:01.138Z,1.02
2019-04-27T19:50:01.120Z,0.87
2019-04-27T19:55:02.146Z,0.78
2019-04-27T20:00:01.638Z,0.71
2019-04-27T20:05:01.111Z,0.70
2019-04-27T20:10:01.560Z,0.55
2019-04-27T20:15:02.402Z,0.58
2019-04-27T20:20:01.642Z,0.70
2019-04-27T20:25:02.130Z,0.82
2019-04-27T20:30:03.014Z,0.81
2019-04-27T20:35:01.741Z,0.94
2019-04-27T20:40:01.621Z,0.87
2019-04-27T20:45:02.069Z,0.83
2019-04-27T20:50:01.734Z,0.75
2019-04-27T20:55:01.590Z,1.00
2019-04-27T21:00:02.118Z,0.62
2019-04-27T21:05:01.713Z,0.59
2019-04-27T21:10:01.085Z,0.59
2019-04-27T21:15:01.395Z,1.15
2019-04-27T21:20:01.408Z,0.75
2019-04-27T21:25:01.667Z,0.92
2019-04-27T21:30:02.720Z,1.09
2019-04-27T21:35:01.792Z,0.72
2019-04-27T21:40:02.048Z,0.70
2019-04-27T21:45:01.358Z,0.59
2019-04-27T21:50:01.074Z,0.00
2019-04-27T21:55:01.601Z,0.59
2019-04-27T22:00:01.448Z,0.16
2019-04-27T22:05:01.775Z,0.00
2019-04-27T22:10:02.006Z,0.21
2019-04-27T22:15:01.209Z,0.47
2019-04-27T22:20:01.661Z,0.78
2019-04-27T22:25:01.454Z,0.89
2019-04-27T22:30:01.068Z,0.66
2019-04-27T22:35:01.363Z,0.95
2019-04-27T22:40:01.101Z,0.65
2019-04-27T22:45:01.303Z,0.78
2019-04-27T22:50:01.067Z,0.95
2019-04-27T22:55:01.654Z,0.62
2019-04-27T23:00:03.352Z,0.79
2019-04-27T23:05:01.918Z,0.88
2019-04-27T23:10:01.542Z,0.72
2019-04-27T23:15:01.069Z,0.39
2019-04-27T23:20:01.527Z,0.53
2019-04-27T23:25:01.358Z,0.89
2019-04-27T23:30:01.569Z,0.46
2019-04-27T23:35:01.454Z,0.48
2019-04-27T23:40:02.997Z,0.12
2019-04-27T23:45:01.384Z,0.00
2019-04-27T23:50:01.076Z,0.04
2019-04-27T23:55:02.322Z,0.24
